sensor_id;sensor_type;location;lat;lon;timestamp;pressure;altitude;pressure_sealevel;temperature;humidity
8334;BME280;4204;43.004;23.052;2022-11-15T00:01:15;94309.53;;;3.68;100.00
8334;BME280;4204;43.004;23.052;2022-11-15T00:04:02;94309.56;;;3.83;100.00
8334;BME280;4204;43.004;23.052;2022-11-15T00:06:49;94308.31;;;4.10;100.00
8334;BME280;4204;43.004;23.052;2022-11-15T00:09:35;94307.00;;;4.08;100.00
8334;BME280;4204;43.004;23.052;2022-11-15T00:12:21;94316.75;;;4.07;100.00
8334;BME280;4204;43.004;23.052;2022-11-15T00:15:08;94310.13;;;3.90;100.00
8334;BME280;4204;43.004;23.052;2022-11-15T00:17:56;94302.44;;;3.73;100.00
8334;BME280;4204;43.004;23.052;2022-11-15T00:20:43;94289.72;;;3.50;100.00
8334;BME280;4204;43.004;23.052;2022-11-15T00:23:29;94300.22;;;3.45;100.00
8334;BME280;4204;43.004;23.052;2022-11-15T00:26:16;94307.28;;;3.40;100.00
8334;BME280;4204;43.004;23.052;2022-11-15T00:29:03;94307.81;;;3.37;100.00
8334;BME280;4204;43.004;23.052;2022-11-15T00:31:49;94306.22;;;3.36;100.00
8334;BME280;4204;43.004;23.052;2022-11-15T00:34:37;94299.84;;;3.21;100.00
8334;BME280;4204;43.004;23.052;2022-11-15T00:37:23;94308.75;;;3.15;100.00
8334;BME280;4204;43.004;23.052;2022-11-15T00:40:11;94309.00;;;3.14;100.00
8334;BME280;4204;43.004;23.052;2022-11-15T00:42:58;94298.72;;;3.12;100.00
8334;BME280;4204;43.004;23.052;2022-11-15T00:45:44;94298.81;;;3.27;100.00
8334;BME280;4204;43.004;23.052;2022-11-15T00:48:31;94303.91;;;3.44;100.00
8334;BME280;4204;43.004;23.052;2022-11-15T00:51:19;94298.09;;;3.37;100.00
8334;BME280;4204;43.004;23.052;2022-11-15T00:54:05;94295.44;;;3.32;100.00
8334;BME280;4204;43.004;23.052;2022-11-15T00:56:51;94304.19;;;3.01;100.00
8334;BME280;4204;43.004;23.052;2022-11-15T00:59:38;94297.69;;;3.13;100.00
8334;BME280;4204;43.004;23.052;2022-11-15T01:02:24;94286.22;;;3.24;100.00
8334;BME280;4204;43.004;23.052;2022-11-15T01:05:10;94288.31;;;3.22;100.00
8334;BME280;4204;43.004;23.052;2022-11-15T01:07:57;94292.81;;;3.32;100.00
8334;BME280;4204;43.004;23.052;2022-11-15T01:10:44;94295.22;;;3.44;100.00
8334;BME280;4204;43.004;23.052;2022-11-15T01:13:31;94292.66;;;3.54;100.00
8334;BME280;4204;43.004;23.052;2022-11-15T01:16:18;94300.03;;;3.62;100.00
8334;BME280;4204;43.004;23.052;2022-11-15T01:19:04;94305.91;;;3.27;100.00
8334;BME280;4204;43.004;23.052;2022-11-15T01:21:50;94294.28;;;3.13;100.00
8334;BME280;4204;43.004;23.052;2022-11-15T01:24:38;94288.31;;;3.22;100.00
8334;BME280;4204;43.004;23.052;2022-11-15T01:27:24;94290.19;;;3.32;100.00
8334;BME280;4204;43.004;23.052;2022-11-15T01:30:11;94291.47;;;3.29;100.00
8334;BME280;4204;43.004;23.052;2022-11-15T01:32:57;94284.31;;;3.15;100.00
8334;BME280;4204;43.004;23.052;2022-11-15T01:35:44;94284.25;;;3.05;100.00
8334;BME280;4204;43.004;23.052;2022-11-15T01:38:30;94287.91;;;2.99;100.00
8334;BME280;4204;43.004;23.052;2022-11-15T01:41:20;94286.56;;;2.96;100.00
8334;BME280;4204;43.004;23.052;2022-11-15T01:44:31;94281.84;;;2.93;100.00
8334;BME280;4204;43.004;23.052;2022-11-15T01:47:20;94280.75;;;2.89;100.00
8334;BME280;4204;43.004;23.052;2022-11-15T01:50:10;94281.78;;;2.88;100.00
8334;BME280;4204;43.004;23.052;2022-11-15T01:52:57;94273.72;;;3.00;100.00
8334;BME280;4204;43.004;23.052;2022-11-15T01:55:44;94286.88;;;3.05;100.00
8334;BME280;4204;43.004;23.052;2022-11-15T01:58:32;94276.03;;;2.91;100.00
8334;BME280;4204;43.004;23.052;2022-11-15T02:01:19;94290.72;;;2.51;100.00
8334;BME280;4204;43.004;23.052;2022-11-15T02:04:10;94276.16;;;2.33;100.00
8334;BME280;4204;43.004;23.052;2022-11-15T02:06:58;94266.59;;;2.22;100.00
8334;BME280;4204;43.004;23.052;2022-11-15T02:09:46;94264.72;;;2.17;100.00
8334;BME280;4204;43.004;23.052;2022-11-15T02:12:32;94267.13;;;2.24;100.00
8334;BME280;4204;43.004;23.052;2022-11-15T02:15:21;94260.66;;;2.31;100.00
8334;BME280;4204;43.004;23.052;2022-11-15T02:18:15;94270.38;;;2.36;100.00
8334;BME280;4204;43.004;23.052;2022-11-15T02:21:14;94267.59;;;2.47;100.00
8334;BME280;4204;43.004;23.052;2022-11-15T02:24:17;94268.09;;;2.44;100.00
8334;BME280;4204;43.004;23.052;2022-11-15T02:30:33;94264.06;;;2.32;100.00
8334;BME280;4204;43.004;23.052;2022-11-15T02:33:31;94258.13;;;2.46;100.00
8334;BME280;4204;43.004;23.052;2022-11-15T02:36:29;94262.06;;;2.44;100.00
8334;BME280;4204;43.004;23.052;2022-11-15T02:39:23;94262.47;;;2.63;100.00
8334;BME280;4204;43.004;23.052;2022-11-15T02:42:15;94252.25;;;2.71;100.00
8334;BME280;4204;43.004;23.052;2022-11-15T02:45:36;94264.34;;;2.72;100.00
8334;BME280;4204;43.004;23.052;2022-11-15T02:48:24;94259.50;;;2.54;100.00
8334;BME280;4204;43.004;23.052;2022-11-15T02:51:12;94257.13;;;2.53;100.00
8334;BME280;4204;43.004;23.052;2022-11-15T02:53:59;94263.06;;;2.75;100.00
8334;BME280;4204;43.004;23.052;2022-11-15T02:56:46;94268.09;;;2.81;100.00
8334;BME280;4204;43.004;23.052;2022-11-15T02:59:53;94261.66;;;3.09;100.00
8334;BME280;4204;43.004;23.052;2022-11-15T03:03:00;94266.63;;;3.00;100.00
8334;BME280;4204;43.004;23.052;2022-11-15T03:05:54;94241.00;;;2.76;100.00
8334;BME280;4204;43.004;23.052;2022-11-15T03:08:53;94255.19;;;2.80;100.00
8334;BME280;4204;43.004;23.052;2022-11-15T03:11:46;94245.44;;;2.75;100.00
8334;BME280;4204;43.004;23.052;2022-11-15T03:14:36;94259.69;;;2.42;100.00
8334;BME280;4204;43.004;23.052;2022-11-15T03:17:28;94248.03;;;2.28;100.00
8334;BME280;4204;43.004;23.052;2022-11-15T03:20:17;94242.91;;;2.12;100.00
8334;BME280;4204;43.004;23.052;2022-11-15T03:23:06;94238.28;;;2.24;100.00
8334;BME280;4204;43.004;23.052;2022-11-15T03:25:54;94232.81;;;2.30;100.00
8334;BME280;4204;43.004;23.052;2022-11-15T03:28:45;94221.78;;;2.28;100.00
8334;BME280;4204;43.004;23.052;2022-11-15T03:31:39;94218.94;;;2.35;100.00
8334;BME280;4204;43.004;23.052;2022-11-15T03:34:37;94211.44;;;2.95;100.00
8334;BME280;4204;43.004;23.052;2022-11-15T03:37:30;94216.44;;;2.55;100.00
8334;BME280;4204;43.004;23.052;2022-11-15T03:40:23;94214.72;;;2.29;100.00
8334;BME280;4204;43.004;23.052;2022-11-15T03:43:15;94211.50;;;2.22;100.00
8334;BME280;4204;43.004;23.052;2022-11-15T03:46:09;94218.13;;;1.98;100.00
8334;BME280;4204;43.004;23.052;2022-11-15T03:49:03;94207.56;;;1.88;100.00
8334;BME280;4204;43.004;23.052;2022-11-15T03:51:51;94209.06;;;2.10;100.00
8334;BME280;4204;43.004;23.052;2022-11-15T03:54:47;94208.31;;;2.15;100.00
8334;BME280;4204;43.004;23.052;2022-11-15T03:57:33;94192.16;;;2.33;100.00
8334;BME280;4204;43.004;23.052;2022-11-15T04:00:20;94203.53;;;2.48;100.00
8334;BME280;4204;43.004;23.052;2022-11-15T04:03:06;94205.16;;;2.18;100.00
8334;BME280;4204;43.004;23.052;2022-11-15T04:05:53;94205.88;;;2.08;100.00
8334;BME280;4204;43.004;23.052;2022-11-15T04:08:39;94195.28;;;1.93;100.00
8334;BME280;4204;43.004;23.052;2022-11-15T04:11:26;94169.84;;;1.94;100.00
8334;BME280;4204;43.004;23.052;2022-11-15T04:14:12;94212.22;;;2.12;100.00
8334;BME280;4204;43.004;23.052;2022-11-15T04:16:59;94187.72;;;2.02;100.00
8334;BME280;4204;43.004;23.052;2022-11-15T04:19:44;94190.09;;;2.03;100.00
8334;BME280;4204;43.004;23.052;2022-11-15T04:22:48;94184.53;;;1.95;100.00
8334;BME280;4204;43.004;23.052;2022-11-15T04:25:53;94190.56;;;1.95;100.00
8334;BME280;4204;43.004;23.052;2022-11-15T04:28:41;94193.09;;;1.85;100.00
8334;BME280;4204;43.004;23.052;2022-11-15T04:31:41;94199.56;;;2.04;100.00
8334;BME280;4204;43.004;23.052;2022-11-15T04:34:27;94195.97;;;2.15;100.00
8334;BME280;4204;43.004;23.052;2022-11-15T04:37:13;94206.19;;;2.12;100.00
8334;BME280;4204;43.004;23.052;2022-11-15T04:40:00;94210.97;;;2.20;100.00
8334;BME280;4204;43.004;23.052;2022-11-15T04:42:46;94205.44;;;2.16;100.00
8334;BME280;4204;43.004;23.052;2022-11-15T04:45:34;94201.47;;;2.14;100.00
8334;BME280;4204;43.004;23.052;2022-11-15T04:48:20;94207.72;;;2.08;100.00
8334;BME280;4204;43.004;23.052;2022-11-15T04:51:06;94202.53;;;2.13;100.00
8334;BME280;4204;43.004;23.052;2022-11-15T04:53:53;94196.16;;;2.04;100.00
8334;BME280;4204;43.004;23.052;2022-11-15T04:56:39;94201.47;;;2.14;100.00
8334;BME280;4204;43.004;23.052;2022-11-15T04:59:25;94200.50;;;2.25;100.00
8334;BME280;4204;43.004;23.052;2022-11-15T05:02:13;94191.94;;;2.39;100.00
8334;BME280;4204;43.004;23.052;2022-11-15T05:04:59;94185.03;;;2.28;100.00
8334;BME280;4204;43.004;23.052;2022-11-15T05:07:44;94174.63;;;2.02;100.00
8334;BME280;4204;43.004;23.052;2022-11-15T05:10:31;94166.34;;;1.83;100.00
8334;BME280;4204;43.004;23.052;2022-11-15T05:13:17;94169.38;;;1.70;100.00
8334;BME280;4204;43.004;23.052;2022-11-15T05:16:03;94167.34;;;1.77;100.00
8334;BME280;4204;43.004;23.052;2022-11-15T05:18:52;94171.88;;;1.87;100.00
8334;BME280;4204;43.004;23.052;2022-11-15T05:21:39;94174.75;;;1.85;100.00
8334;BME280;4204;43.004;23.052;2022-11-15T05:24:26;94178.72;;;1.93;100.00
8334;BME280;4204;43.004;23.052;2022-11-15T05:27:12;94177.72;;;1.99;100.00
8334;BME280;4204;43.004;23.052;2022-11-15T05:29:59;94175.66;;;2.01;100.00
8334;BME280;4204;43.004;23.052;2022-11-15T05:32:45;94176.78;;;2.10;100.00
8334;BME280;4204;43.004;23.052;2022-11-15T05:35:36;94178.94;;;2.18;100.00
8334;BME280;4204;43.004;23.052;2022-11-15T05:38:24;94185.44;;;1.79;100.00
8334;BME280;4204;43.004;23.052;2022-11-15T05:41:11;94181.47;;;1.76;100.00
8334;BME280;4204;43.004;23.052;2022-11-15T05:44:00;94179.41;;;1.78;100.00
8334;BME280;4204;43.004;23.052;2022-11-15T05:46:49;94182.41;;;1.92;100.00
8334;BME280;4204;43.004;23.052;2022-11-15T05:49:39;94176.09;;;1.93;100.00
8334;BME280;4204;43.004;23.052;2022-11-15T05:52:31;94187.00;;;2.06;100.00
8334;BME280;4204;43.004;23.052;2022-11-15T05:55:20;94183.91;;;2.14;100.00
8334;BME280;4204;43.004;23.052;2022-11-15T05:58:06;94192.63;;;2.25;100.00
8334;BME280;4204;43.004;23.052;2022-11-15T06:00:54;94196.44;;;2.44;100.00
8334;BME280;4204;43.004;23.052;2022-11-15T06:03:40;94190.50;;;2.59;100.00
8334;BME280;4204;43.004;23.052;2022-11-15T06:06:27;94188.63;;;2.54;100.00
8334;BME280;4204;43.004;23.052;2022-11-15T06:09:15;94189.19;;;2.61;100.00
8334;BME280;4204;43.004;23.052;2022-11-15T06:12:01;94187.72;;;2.38;100.00
8334;BME280;4204;43.004;23.052;2022-11-15T06:14:47;94177.16;;;2.23;100.00
8334;BME280;4204;43.004;23.052;2022-11-15T06:17:35;94178.50;;;2.31;100.00
8334;BME280;4204;43.004;23.052;2022-11-15T06:20:22;94185.63;;;2.40;100.00
8334;BME280;4204;43.004;23.052;2022-11-15T06:23:08;94180.44;;;2.45;100.00
8334;BME280;4204;43.004;23.052;2022-11-15T06:25:59;94174.44;;;2.50;100.00
8334;BME280;4204;43.004;23.052;2022-11-15T06:28:45;94172.34;;;2.57;100.00
8334;BME280;4204;43.004;23.052;2022-11-15T06:31:33;94172.69;;;2.71;100.00
8334;BME280;4204;43.004;23.052;2022-11-15T06:34:19;94165.38;;;3.70;100.00
8334;BME280;4204;43.004;23.052;2022-11-15T06:37:05;94171.09;;;3.26;100.00
8334;BME280;4204;43.004;23.052;2022-11-15T06:39:52;94169.34;;;2.85;100.00
8334;BME280;4204;43.004;23.052;2022-11-15T06:42:40;94163.75;;;2.67;100.00
8334;BME280;4204;43.004;23.052;2022-11-15T06:45:26;94156.22;;;2.90;100.00
8334;BME280;4204;43.004;23.052;2022-11-15T06:48:14;94160.59;;;3.42;100.00
8334;BME280;4204;43.004;23.052;2022-11-15T06:51:01;94157.50;;;3.90;100.00
8334;BME280;4204;43.004;23.052;2022-11-15T06:53:48;94158.53;;;4.34;100.00
8334;BME280;4204;43.004;23.052;2022-11-15T06:56:34;94149.22;;;4.72;100.00
8334;BME280;4204;43.004;23.052;2022-11-15T06:59:22;94148.84;;;5.09;100.00
8334;BME280;4204;43.004;23.052;2022-11-15T07:02:11;94153.16;;;5.38;100.00
8334;BME280;4204;43.004;23.052;2022-11-15T07:04:58;94160.63;;;5.31;100.00
8334;BME280;4204;43.004;23.052;2022-11-15T07:07:51;94168.69;;;4.86;100.00
8334;BME280;4204;43.004;23.052;2022-11-15T07:10:37;94180.84;;;4.77;100.00
8334;BME280;4204;43.004;23.052;2022-11-15T07:13:24;94192.72;;;4.69;100.00
8334;BME280;4204;43.004;23.052;2022-11-15T07:16:11;94197.97;;;4.74;100.00
8334;BME280;4204;43.004;23.052;2022-11-15T07:18:58;94190.34;;;4.73;100.00
8334;BME280;4204;43.004;23.052;2022-11-15T07:21:44;94188.22;;;4.70;100.00
8334;BME280;4204;43.004;23.052;2022-11-15T07:24:31;94186.91;;;4.72;100.00
8334;BME280;4204;43.004;23.052;2022-11-15T07:27:18;94185.75;;;5.04;100.00
8334;BME280;4204;43.004;23.052;2022-11-15T07:30:05;94176.72;;;5.20;100.00
8334;BME280;4204;43.004;23.052;2022-11-15T07:32:54;94172.72;;;5.32;100.00
8334;BME280;4204;43.004;23.052;2022-11-15T07:35:40;94181.31;;;5.58;100.00
8334;BME280;4204;43.004;23.052;2022-11-15T07:38:28;94185.56;;;5.54;100.00
8334;BME280;4204;43.004;23.052;2022-11-15T07:41:14;94191.84;;;5.58;100.00
8334;BME280;4204;43.004;23.052;2022-11-15T07:44:01;94186.47;;;5.78;100.00
8334;BME280;4204;43.004;23.052;2022-11-15T07:46:47;94184.28;;;5.90;100.00
8334;BME280;4204;43.004;23.052;2022-11-15T07:49:35;94187.94;;;5.99;100.00
8334;BME280;4204;43.004;23.052;2022-11-15T07:52:21;94186.91;;;5.95;100.00
8334;BME280;4204;43.004;23.052;2022-11-15T07:55:08;94178.19;;;5.95;100.00
8334;BME280;4204;43.004;23.052;2022-11-15T07:58:00;94184.72;;;6.02;100.00
8334;BME280;4204;43.004;23.052;2022-11-15T08:00:46;94174.38;;;6.11;100.00
8334;BME280;4204;43.004;23.052;2022-11-15T08:03:33;94186.66;;;6.25;100.00
8334;BME280;4204;43.004;23.052;2022-11-15T08:06:21;94171.75;;;6.39;100.00
8334;BME280;4204;43.004;23.052;2022-11-15T08:09:07;94170.91;;;6.49;100.00
8334;BME280;4204;43.004;23.052;2022-11-15T08:11:53;94152.41;;;6.49;100.00
8334;BME280;4204;43.004;23.052;2022-11-15T08:14:40;94157.81;;;6.63;100.00
8334;BME280;4204;43.004;23.052;2022-11-15T08:17:26;94146.56;;;6.76;100.00
8334;BME280;4204;43.004;23.052;2022-11-15T08:20:16;94155.41;;;6.90;100.00
8334;BME280;4204;43.004;23.052;2022-11-15T08:23:05;94145.34;;;6.92;100.00
8334;BME280;4204;43.004;23.052;2022-11-15T08:25:52;94122.34;;;6.92;100.00
8334;BME280;4204;43.004;23.052;2022-11-15T08:28:39;94129.22;;;7.12;100.00
8334;BME280;4204;43.004;23.052;2022-11-15T08:31:25;94128.69;;;7.33;100.00
8334;BME280;4204;43.004;23.052;2022-11-15T08:34:17;94126.63;;;7.49;100.00
8334;BME280;4204;43.004;23.052;2022-11-15T08:37:05;94118.81;;;7.76;100.00
8334;BME280;4204;43.004;23.052;2022-11-15T08:39:52;94121.59;;;8.03;100.00
8334;BME280;4204;43.004;23.052;2022-11-15T08:42:38;94118.38;;;8.39;100.00
8334;BME280;4204;43.004;23.052;2022-11-15T08:45:25;94115.31;;;8.64;100.00
8334;BME280;4204;43.004;23.052;2022-11-15T08:48:11;94112.75;;;8.86;100.00
8334;BME280;4204;43.004;23.052;2022-11-15T08:50:57;94119.38;;;9.02;100.00
8334;BME280;4204;43.004;23.052;2022-11-15T08:53:44;94115.09;;;9.15;100.00
8334;BME280;4204;43.004;23.052;2022-11-15T08:56:31;94105.88;;;9.39;100.00
8334;BME280;4204;43.004;23.052;2022-11-15T08:59:17;94109.53;;;9.52;100.00
8334;BME280;4204;43.004;23.052;2022-11-15T09:02:04;94111.28;;;9.70;100.00
8334;BME280;4204;43.004;23.052;2022-11-15T09:04:50;94098.19;;;9.96;100.00
8334;BME280;4204;43.004;23.052;2022-11-15T09:07:36;94101.34;;;10.11;100.00
8334;BME280;4204;43.004;23.052;2022-11-15T09:10:23;94092.84;;;10.31;100.00
8334;BME280;4204;43.004;23.052;2022-11-15T09:13:11;94091.09;;;10.49;100.00
8334;BME280;4204;43.004;23.052;2022-11-15T09:15:57;94089.78;;;10.69;100.00
8334;BME280;4204;43.004;23.052;2022-11-15T09:18:44;94086.56;;;10.89;100.00
8334;BME280;4204;43.004;23.052;2022-11-15T09:21:30;94090.59;;;11.17;100.00
8334;BME280;4204;43.004;23.052;2022-11-15T09:24:17;94089.06;;;11.33;100.00
8334;BME280;4204;43.004;23.052;2022-11-15T09:27:03;94069.50;;;11.46;100.00
8334;BME280;4204;43.004;23.052;2022-11-15T09:29:51;94075.16;;;11.62;100.00
8334;BME280;4204;43.004;23.052;2022-11-15T09:32:37;94078.66;;;11.71;100.00
8334;BME280;4204;43.004;23.052;2022-11-15T09:35:24;94060.63;;;11.76;100.00
8334;BME280;4204;43.004;23.052;2022-11-15T09:38:10;94064.22;;;11.89;100.00
8334;BME280;4204;43.004;23.052;2022-11-15T09:41:24;94049.03;;;11.89;100.00
8334;BME280;4204;43.004;23.052;2022-11-15T09:44:37;94054.34;;;11.98;100.00
8334;BME280;4204;43.004;23.052;2022-11-15T09:47:56;94043.19;;;12.04;100.00
8334;BME280;4204;43.004;23.052;2022-11-15T09:50:56;94037.56;;;12.06;100.00
8334;BME280;4204;43.004;23.052;2022-11-15T09:53:31;94030.47;;;12.18;100.00
8334;BME280;4204;43.004;23.052;2022-11-15T09:56:12;94030.13;;;12.37;100.00
8334;BME280;4204;43.004;23.052;2022-11-15T09:58:48;94028.38;;;12.41;100.00
8334;BME280;4204;43.004;23.052;2022-11-15T10:01:29;94024.44;;;12.47;100.00
8334;BME280;4204;43.004;23.052;2022-11-15T10:04:02;94025.06;;;12.44;100.00
8334;BME280;4204;43.004;23.052;2022-11-15T10:06:32;94022.22;;;12.49;100.00
8334;BME280;4204;43.004;23.052;2022-11-15T10:09:11;94022.34;;;12.61;100.00
8334;BME280;4204;43.004;23.052;2022-11-15T10:11:41;94009.94;;;12.65;100.00
8334;BME280;4204;43.004;23.052;2022-11-15T10:14:11;94014.44;;;12.73;100.00
8334;BME280;4204;43.004;23.052;2022-11-15T10:17:06;94012.75;;;12.98;100.00
8334;BME280;4204;43.004;23.052;2022-11-15T10:19:46;94002.34;;;13.14;100.00
8334;BME280;4204;43.004;23.052;2022-11-15T10:22:25;93995.72;;;13.40;100.00
8334;BME280;4204;43.004;23.052;2022-11-15T10:25:22;93990.56;;;13.56;100.00
8334;BME280;4204;43.004;23.052;2022-11-15T10:27:54;93981.50;;;13.48;100.00
8334;BME280;4204;43.004;23.052;2022-11-15T10:30:51;93981.91;;;13.59;100.00
8334;BME280;4204;43.004;23.052;2022-11-15T10:43:26;93956.53;;;13.65;100.00
8334;BME280;4204;43.004;23.052;2022-11-15T10:45:54;93953.06;;;13.64;100.00
8334;BME280;4204;43.004;23.052;2022-11-15T10:48:23;93956.19;;;13.66;100.00
8334;BME280;4204;43.004;23.052;2022-11-15T10:50:53;93945.78;;;13.73;100.00
8334;BME280;4204;43.004;23.052;2022-11-15T10:53:30;93949.53;;;13.72;100.00
8334;BME280;4204;43.004;23.052;2022-11-15T10:56:03;93941.56;;;13.85;100.00
8334;BME280;4204;43.004;23.052;2022-11-15T10:58:36;93935.03;;;13.94;100.00
8334;BME280;4204;43.004;23.052;2022-11-15T11:01:16;93941.28;;;13.98;100.00
8334;BME280;4204;43.004;23.052;2022-11-15T11:03:45;93938.06;;;14.05;100.00
8334;BME280;4204;43.004;23.052;2022-11-15T11:06:15;93922.78;;;14.05;100.00
8334;BME280;4204;43.004;23.052;2022-11-15T11:08:55;93930.06;;;14.17;100.00
8334;BME280;4204;43.004;23.052;2022-11-15T11:11:23;93929.09;;;14.21;100.00
8334;BME280;4204;43.004;23.052;2022-11-15T11:13:52;93927.09;;;14.30;100.00
8334;BME280;4204;43.004;23.052;2022-11-15T11:16:34;93922.44;;;14.39;100.00
8334;BME280;4204;43.004;23.052;2022-11-15T11:22:05;93918.09;;;14.47;100.00
8334;BME280;4204;43.004;23.052;2022-11-15T11:24:38;93908.41;;;14.54;100.00
8334;BME280;4204;43.004;23.052;2022-11-15T11:27:22;93897.00;;;14.57;100.00
8334;BME280;4204;43.004;23.052;2022-11-15T11:30:08;93900.03;;;14.56;100.00
8334;BME280;4204;43.004;23.052;2022-11-15T11:33:04;93898.25;;;14.60;100.00
8334;BME280;4204;43.004;23.052;2022-11-15T11:35:40;93893.22;;;14.58;100.00
8334;BME280;4204;43.004;23.052;2022-11-15T11:38:19;93886.53;;;14.77;100.00
8334;BME280;4204;43.004;23.052;2022-11-15T11:41:00;93880.81;;;14.78;100.00
8334;BME280;4204;43.004;23.052;2022-11-15T11:43:38;93883.16;;;14.80;100.00
8334;BME280;4204;43.004;23.052;2022-11-15T11:46:18;93882.91;;;14.97;100.00
8334;BME280;4204;43.004;23.052;2022-11-15T11:48:57;93867.81;;;15.04;100.00
8334;BME280;4204;43.004;23.052;2022-11-15T11:51:28;93870.94;;;15.18;100.00
8334;BME280;4204;43.004;23.052;2022-11-15T11:54:04;93855.38;;;15.24;100.00
8334;BME280;4204;43.004;23.052;2022-11-15T11:56:35;93860.03;;;15.39;100.00
8334;BME280;4204;43.004;23.052;2022-11-15T11:59:09;93852.50;;;15.17;100.00
8334;BME280;4204;43.004;23.052;2022-11-15T12:01:43;93851.56;;;15.25;100.00
8334;BME280;4204;43.004;23.052;2022-11-15T12:04:14;93825.97;;;15.12;100.00
8334;BME280;4204;43.004;23.052;2022-11-15T12:06:46;93847.78;;;15.26;100.00
8334;BME280;4204;43.004;23.052;2022-11-15T12:09:20;93840.19;;;15.28;100.00
8334;BME280;4204;43.004;23.052;2022-11-15T12:11:53;93829.81;;;15.26;100.00
8334;BME280;4204;43.004;23.052;2022-11-15T12:14:31;93830.75;;;15.46;100.00
8334;BME280;4204;43.004;23.052;2022-11-15T12:17:01;93833.97;;;15.39;100.00
8334;BME280;4204;43.004;23.052;2022-11-15T12:19:30;93826.78;;;15.28;100.00
8334;BME280;4204;43.004;23.052;2022-11-15T12:22:03;93828.59;;;15.24;100.00
8334;BME280;4204;43.004;23.052;2022-11-15T12:24:37;93825.91;;;15.24;100.00
8334;BME280;4204;43.004;23.052;2022-11-15T12:27:23;93823.00;;;15.29;100.00
8334;BME280;4204;43.004;23.052;2022-11-15T12:29:56;93828.97;;;15.38;100.00
8334;BME280;4204;43.004;23.052;2022-11-15T12:32:28;93827.31;;;15.46;100.00
8334;BME280;4204;43.004;23.052;2022-11-15T12:34:58;93831.31;;;15.39;100.00
8334;BME280;4204;43.004;23.052;2022-11-15T12:37:48;93817.34;;;15.46;100.00
8334;BME280;4204;43.004;23.052;2022-11-15T12:46:19;93819.59;;;15.44;100.00
8334;BME280;4204;43.004;23.052;2022-11-15T12:48:52;93813.44;;;15.44;100.00
8334;BME280;4204;43.004;23.052;2022-11-15T12:51:22;93814.88;;;15.53;100.00
8334;BME280;4204;43.004;23.052;2022-11-15T12:53:50;93806.06;;;15.40;100.00
8334;BME280;4204;43.004;23.052;2022-11-15T12:56:22;93788.81;;;15.10;100.00
8334;BME280;4204;43.004;23.052;2022-11-15T12:58:53;93796.94;;;15.14;100.00
8334;BME280;4204;43.004;23.052;2022-11-15T13:01:58;93799.31;;;15.31;100.00
8334;BME280;4204;43.004;23.052;2022-11-15T13:04:30;93792.13;;;15.47;100.00
8334;BME280;4204;43.004;23.052;2022-11-15T13:07:00;93788.94;;;15.57;100.00
8334;BME280;4204;43.004;23.052;2022-11-15T13:09:51;93787.97;;;15.65;100.00
8334;BME280;4204;43.004;23.052;2022-11-15T13:12:52;93782.84;;;15.60;100.00
8334;BME280;4204;43.004;23.052;2022-11-15T13:15:45;93782.44;;;15.58;100.00
8334;BME280;4204;43.004;23.052;2022-11-15T13:18:32;93781.22;;;15.56;100.00
8334;BME280;4204;43.004;23.052;2022-11-15T13:21:03;93781.41;;;15.47;100.00
8334;BME280;4204;43.004;23.052;2022-11-15T13:23:54;93786.25;;;15.57;100.00
8334;BME280;4204;43.004;23.052;2022-11-15T13:26:22;93776.97;;;15.55;100.00
8334;BME280;4204;43.004;23.052;2022-11-15T13:28:51;93787.91;;;15.62;100.00
8334;BME280;4204;43.004;23.052;2022-11-15T13:31:27;93788.06;;;15.69;100.00
8334;BME280;4204;43.004;23.052;2022-11-15T13:33:59;93786.88;;;15.66;100.00
8334;BME280;4204;43.004;23.052;2022-11-15T13:36:31;93785.81;;;15.55;100.00
8334;BME280;4204;43.004;23.052;2022-11-15T13:39:03;93787.72;;;15.55;100.00
8334;BME280;4204;43.004;23.052;2022-11-15T13:41:32;93784.94;;;15.51;100.00
8334;BME280;4204;43.004;23.052;2022-11-15T13:44:01;93787.19;;;15.49;100.00
8334;BME280;4204;43.004;23.052;2022-11-15T13:46:30;93777.13;;;15.46;100.00
8334;BME280;4204;43.004;23.052;2022-11-15T13:49:01;93784.75;;;15.44;100.00
8334;BME280;4204;43.004;23.052;2022-11-15T13:51:35;93772.94;;;15.33;100.00
8334;BME280;4204;43.004;23.052;2022-11-15T13:54:13;93791.25;;;15.43;100.00
8334;BME280;4204;43.004;23.052;2022-11-15T13:56:45;93788.09;;;15.41;100.00
8334;BME280;4204;43.004;23.052;2022-11-15T13:59:18;93790.72;;;15.25;100.00
8334;BME280;4204;43.004;23.052;2022-11-15T14:01:49;93786.06;;;15.22;100.00
8334;BME280;4204;43.004;23.052;2022-11-15T14:04:20;93792.88;;;15.20;100.00
8334;BME280;4204;43.004;23.052;2022-11-15T14:06:53;93779.84;;;15.34;100.00
8334;BME280;4204;43.004;23.052;2022-11-15T14:09:31;93779.28;;;15.40;100.00
8334;BME280;4204;43.004;23.052;2022-11-15T14:12:01;93783.19;;;15.43;100.00
8334;BME280;4204;43.004;23.052;2022-11-15T14:14:30;93779.72;;;15.43;100.00
8334;BME280;4204;43.004;23.052;2022-11-15T14:16:59;93774.16;;;15.35;100.00
8334;BME280;4204;43.004;23.052;2022-11-15T14:19:38;93761.38;;;15.29;100.00
8334;BME280;4204;43.004;23.052;2022-11-15T14:22:23;93772.72;;;15.10;100.00
8334;BME280;4204;43.004;23.052;2022-11-15T14:25:13;93778.22;;;15.02;100.00
8334;BME280;4204;43.004;23.052;2022-11-15T14:27:42;93776.22;;;14.99;100.00
8334;BME280;4204;43.004;23.052;2022-11-15T14:30:18;93781.63;;;14.87;100.00
8334;BME280;4204;43.004;23.052;2022-11-15T14:32:47;93773.38;;;14.80;100.00
8334;BME280;4204;43.004;23.052;2022-11-15T14:35:17;93772.78;;;14.86;100.00
8334;BME280;4204;43.004;23.052;2022-11-15T14:37:47;93769.81;;;14.76;100.00
8334;BME280;4204;43.004;23.052;2022-11-15T14:40:17;93773.19;;;14.73;100.00
8334;BME280;4204;43.004;23.052;2022-11-15T14:42:46;93776.34;;;14.63;100.00
8334;BME280;4204;43.004;23.052;2022-11-15T14:45:18;93766.63;;;14.58;100.00
8334;BME280;4204;43.004;23.052;2022-11-15T14:47:47;93766.75;;;14.49;100.00
8334;BME280;4204;43.004;23.052;2022-11-15T14:50:17;93766.06;;;14.52;100.00
8334;BME280;4204;43.004;23.052;2022-11-15T14:52:47;93765.34;;;14.40;100.00
8334;BME280;4204;43.004;23.052;2022-11-15T14:55:17;93757.63;;;14.38;100.00
8334;BME280;4204;43.004;23.052;2022-11-15T14:57:47;93748.06;;;14.25;100.00
8334;BME280;4204;43.004;23.052;2022-11-15T15:00:16;93757.66;;;14.02;100.00